createdAt,value
2022-08-14T00:02:03.193Z,19.93
2022-08-14T00:04:42.308Z,19.91
2022-08-14T00:07:13.978Z,19.92
2022-08-14T00:09:55.667Z,19.89
2022-08-14T00:12:33.987Z,19.85
2022-08-14T00:15:19.681Z,19.86
2022-08-14T00:17:53.033Z,19.84
2022-08-14T00:20:30.459Z,19.80
2022-08-14T00:23:12.665Z,19.80
2022-08-14T00:25:59.226Z,19.77
2022-08-14T00:28:35.214Z,19.78
2022-08-14T00:31:04.586Z,19.76
2022-08-14T00:33:50.981Z,19.74
2022-08-14T00:36:35.325Z,19.70
2022-08-14T00:39:06.478Z,19.70
2022-08-14T00:41:35.958Z,19.70
2022-08-14T00:44:05.735Z,19.68
2022-08-14T00:46:33.525Z,19.70
2022-08-14T00:49:00.925Z,19.71
2022-08-14T00:51:37.678Z,19.68
2022-08-14T00:54:16.798Z,19.68
2022-08-14T00:56:50.466Z,19.63
2022-08-14T00:59:17.405Z,19.62
2022-08-14T01:01:46.051Z,19.60
2022-08-14T01:04:51.930Z,19.59
2022-08-14T01:07:00.882Z,19.57
2022-08-14T01:09:31.980Z,19.58
2022-08-14T01:12:02.722Z,19.58
2022-08-14T01:14:30.372Z,19.58
2022-08-14T01:16:57.474Z,19.59
2022-08-14T01:19:43.836Z,19.58
2022-08-14T01:22:13.396Z,19.54
2022-08-14T01:24:45.616Z,19.50
2022-08-14T01:27:22.409Z,19.44
2022-08-14T01:30:03.767Z,19.45
2022-08-14T01:32:37.390Z,19.47
2022-08-14T01:35:18.701Z,19.46
2022-08-14T01:37:57.057Z,19.38
2022-08-14T01:40:36.634Z,19.32
2022-08-14T01:43:14.718Z,19.24
2022-08-14T01:45:42.404Z,19.21
2022-08-14T01:48:13.877Z,19.23
2022-08-14T01:50:41.966Z,19.16
2022-08-14T01:53:09.628Z,19.11
2022-08-14T01:55:40.423Z,19.07
2022-08-14T01:58:19.781Z,19.06
2022-08-14T02:00:56.530Z,19.04
2022-08-14T02:03:29.721Z,19.11
2022-08-14T02:06:03.875Z,19.11
2022-08-14T02:08:53.439Z,19.07
2022-08-14T02:11:23.225Z,19.03
2022-08-14T02:13:54.665Z,18.99
2022-08-14T02:16:26.917Z,18.97
2022-08-14T02:18:57.405Z,18.96
2022-08-14T02:21:26.997Z,18.94
2022-08-14T02:23:57.043Z,18.95
2022-08-14T02:26:30.744Z,18.95
2022-08-14T02:29:03.567Z,18.94
2022-08-14T02:31:41.920Z,18.90
2022-08-14T02:34:36.256Z,18.89
2022-08-14T02:37:06.937Z,18.87
2022-08-14T02:39:40.490Z,18.86
2022-08-14T02:42:13.084Z,18.85
2022-08-14T02:44:49.354Z,18.84
2022-08-14T02:47:19.092Z,18.84
2022-08-14T02:49:50.501Z,18.78
2022-08-14T02:52:56.220Z,18.72
2022-08-14T02:55:09.357Z,18.70
2022-08-14T02:57:39.922Z,18.65
2022-08-14T03:00:09.952Z,18.62
2022-08-14T03:02:56.114Z,18.60
2022-08-14T03:05:24.111Z,18.58
2022-08-14T03:07:52.825Z,18.55
2022-08-14T03:10:25.692Z,18.53
2022-08-14T03:12:53.969Z,18.52
2022-08-14T03:15:20.915Z,18.51
2022-08-14T03:17:57.753Z,18.51
2022-08-14T03:20:30.333Z,18.54
2022-08-14T03:23:00.272Z,18.53
2022-08-14T03:25:33.466Z,18.54
2022-08-14T03:28:07.145Z,18.53
2022-08-14T03:30:39.835Z,18.53
2022-08-14T03:33:10.364Z,18.53
2022-08-14T03:35:59.585Z,18.52
2022-08-14T03:39:15.029Z,18.54
2022-08-14T03:41:16.589Z,18.52
2022-08-14T03:43:57.838Z,18.51
2022-08-14T03:46:53.109Z,18.47
2022-08-14T03:49:24.434Z,18.47
2022-08-14T03:51:55.850Z,18.48
2022-08-14T03:54:26.140Z,18.49
2022-08-14T03:56:54.655Z,18.50
2022-08-14T03:59:21.702Z,18.50
2022-08-14T04:01:57.746Z,18.50
2022-08-14T04:04:31.519Z,18.47
2022-08-14T04:07:00.140Z,18.45
2022-08-14T04:09:28.302Z,18.44
2022-08-14T04:11:58.222Z,18.45
2022-08-14T04:14:26.483Z,18.45
2022-08-14T04:16:53.267Z,18.44
2022-08-14T04:19:24.056Z,18.43
2022-08-14T04:22:03.752Z,18.43
2022-08-14T04:24:38.234Z,18.42
2022-08-14T04:27:09.962Z,18.41
2022-08-14T04:29:42.504Z,18.39
2022-08-14T04:32:57.282Z,18.38
2022-08-14T04:34:58.058Z,18.34
2022-08-14T04:37:45.524Z,18.35
2022-08-14T04:40:32.645Z,18.31
2022-08-14T04:43:20.905Z,18.28
2022-08-14T04:45:51.495Z,18.25
2022-08-14T04:48:39.480Z,18.24
2022-08-14T04:51:12.889Z,18.26
2022-08-14T04:53:43.991Z,18.26
2022-08-14T04:56:30.143Z,18.25
2022-08-14T04:59:09.369Z,18.26
2022-08-14T05:01:40.319Z,18.26
2022-08-14T05:04:08.776Z,18.26
2022-08-14T05:06:42.865Z,18.23
2022-08-14T05:09:13.917Z,18.21
2022-08-14T05:11:41.157Z,18.20
2022-08-14T05:14:17.326Z,18.20
2022-08-14T05:16:56.290Z,18.20
2022-08-14T05:19:29.588Z,18.20
2022-08-14T05:22:17.724Z,18.19
2022-08-14T05:24:51.530Z,18.20
2022-08-14T05:27:22.410Z,18.18
2022-08-14T05:29:52.081Z,18.22
2022-08-14T05:32:18.743Z,18.24
2022-08-14T05:34:47.220Z,18.24
2022-08-14T05:37:15.396Z,18.22
2022-08-14T05:39:43.399Z,18.22
2022-08-14T05:42:21.663Z,18.24
2022-08-14T05:44:54.155Z,18.27
2022-08-14T05:47:22.219Z,18.32
2022-08-14T05:49:48.937Z,18.34
2022-08-14T05:52:18.084Z,18.37
2022-08-14T05:54:44.993Z,18.39
2022-08-14T05:57:11.746Z,18.42
2022-08-14T05:59:40.037Z,18.45
2022-08-14T06:02:11.395Z,18.48
2022-08-14T06:04:48.187Z,18.56
2022-08-14T06:07:16.518Z,18.66
2022-08-14T06:09:43.369Z,18.72
2022-08-14T06:12:31.324Z,18.80
2022-08-14T06:15:08.119Z,18.88
2022-08-14T06:17:58.536Z,18.97
2022-08-14T06:20:25.961Z,19.05
2022-08-14T06:22:52.592Z,19.11
2022-08-14T06:25:19.500Z,19.18
2022-08-14T06:27:48.597Z,19.23
2022-08-14T06:30:19.426Z,19.27
2022-08-14T06:32:47.707Z,19.31
2022-08-14T06:35:20.617Z,19.38
2022-08-14T06:38:00.994Z,19.45
2022-08-14T06:40:34.781Z,19.50
2022-08-14T06:43:08.191Z,19.56
2022-08-14T06:45:37.183Z,19.60
2022-08-14T06:48:14.623Z,19.67
2022-08-14T06:50:46.202Z,19.73
2022-08-14T06:53:14.717Z,19.81
2022-08-14T06:55:57.810Z,19.89
2022-08-14T06:58:29.114Z,19.93
2022-08-14T07:01:17.604Z,19.96
2022-08-14T07:04:05.817Z,19.98
2022-08-14T07:06:45.597Z,20.01
2022-08-14T07:09:18.152Z,20.04
2022-08-14T07:11:49.680Z,20.12
2022-08-14T07:14:16.360Z,20.19
2022-08-14T07:16:43.141Z,20.24
2022-08-14T07:19:10.022Z,20.29
2022-08-14T07:21:38.146Z,20.37
2022-08-14T07:24:04.947Z,20.43
2022-08-14T07:26:36.385Z,20.49
2022-08-14T07:29:05.765Z,20.56
2022-08-14T07:31:33.716Z,20.62
2022-08-14T07:34:00.466Z,20.68
2022-08-14T07:36:31.258Z,20.74
2022-08-14T07:39:11.962Z,20.78
2022-08-14T07:41:40.027Z,20.82
2022-08-14T07:44:29.743Z,20.90
2022-08-14T07:46:58.311Z,21.01
2022-08-14T07:49:25.749Z,21.05
2022-08-14T07:51:52.489Z,21.13
2022-08-14T07:54:23.604Z,21.18
2022-08-14T07:56:57.932Z,21.22
2022-08-14T07:59:41.992Z,21.29
2022-08-14T08:02:19.011Z,21.32
2022-08-14T08:04:54.016Z,21.38
2022-08-14T08:07:23.082Z,21.44
2022-08-14T08:09:54.430Z,21.49
2022-08-14T08:12:26.157Z,21.60
2022-08-14T08:15:02.900Z,21.77
2022-08-14T08:17:38.762Z,21.97
2022-08-14T08:20:11.628Z,22.17
2022-08-14T08:22:40.931Z,22.40
2022-08-14T08:25:13.904Z,22.59
2022-08-14T08:27:44.605Z,22.90
2022-08-14T08:30:12.541Z,23.19
2022-08-14T08:32:41.368Z,23.71
2022-08-14T08:35:23.667Z,24.34
2022-08-14T08:38:01.173Z,24.86
2022-08-14T08:40:42.258Z,25.41
2022-08-14T08:43:22.476Z,26.07
2022-08-14T08:45:57.249Z,26.45
2022-08-14T08:48:37.078Z,26.75
2022-08-14T08:51:07.223Z,27.04
2022-08-14T08:53:35.858Z,27.31
2022-08-14T08:56:04.158Z,27.39
2022-08-14T08:58:32.548Z,27.37
2022-08-14T09:01:01.711Z,26.99
2022-08-14T09:03:30.501Z,26.93
2022-08-14T09:06:03.791Z,27.15
2022-08-14T09:08:33.497Z,27.32
2022-08-14T09:11:20.990Z,27.35
2022-08-14T09:13:52.980Z,27.42
2022-08-14T09:16:24.849Z,27.51
2022-08-14T09:18:53.514Z,27.20
2022-08-14T09:21:24.243Z,26.66
2022-08-14T09:24:28.975Z,26.09
2022-08-14T09:26:48.869Z,25.78
2022-08-14T09:29:16.573Z,25.66
2022-08-14T09:31:52.754Z,25.49
2022-08-14T09:34:35.603Z,25.31
2022-08-14T09:37:33.232Z,25.13
2022-08-14T09:40:20.787Z,25.19
2022-08-14T09:43:02.771Z,25.59
2022-08-14T09:45:52.958Z,25.95
2022-08-14T09:48:27.662Z,26.49
2022-08-14T09:50:58.246Z,26.96
2022-08-14T09:54:12.568Z,27.50
2022-08-14T09:56:32.971Z,27.72
2022-08-14T09:59:15.313Z,27.76
2022-08-14T10:01:43.853Z,27.55
2022-08-14T10:04:33.961Z,27.06
2022-08-14T10:07:03.382Z,26.57
2022-08-14T10:09:33.562Z,26.56
2022-08-14T10:12:04.811Z,26.75
2022-08-14T10:14:35.637Z,27.03
2022-08-14T10:17:06.452Z,27.15
2022-08-14T10:19:35.741Z,27.23
2022-08-14T10:23:11.908Z,27.27
2022-08-14T10:24:54.813Z,27.49
2022-08-14T10:27:26.560Z,27.70
2022-08-14T10:30:00.123Z,27.94
2022-08-14T10:32:40.350Z,28.43
2022-08-14T10:35:14.135Z,28.95
2022-08-14T10:37:50.100Z,28.97
2022-08-14T10:40:44.230Z,29.09
2022-08-14T10:43:32.583Z,29.11
2022-08-14T10:46:21.947Z,29.09
2022-08-14T10:49:03.992Z,29.07
2022-08-14T10:51:34.263Z,28.97
2022-08-14T10:54:35.091Z,28.98
2022-08-14T10:57:18.847Z,28.77
2022-08-14T10:59:47.976Z,28.65
2022-08-14T11:02:22.314Z,28.61
2022-08-14T11:05:13.507Z,28.38
2022-08-14T11:07:55.334Z,28.27
2022-08-14T11:10:27.903Z,28.18
2022-08-14T11:12:57.148Z,28.13
2022-08-14T11:15:27.406Z,28.12
2022-08-14T11:17:56.463Z,28.06
2022-08-14T11:20:30.163Z,28.03
2022-08-14T11:23:00.854Z,27.92
2022-08-14T11:25:36.907Z,27.86
2022-08-14T11:28:14.754Z,27.80
2022-08-14T11:30:53.851Z,27.77
2022-08-14T11:33:29.519Z,27.73
2022-08-14T11:36:02.012Z,27.66
2022-08-14T11:38:37.873Z,27.65
2022-08-14T11:41:06.176Z,27.63
2022-08-14T11:43:55.896Z,27.63
2022-08-14T11:46:29.906Z,27.60
2022-08-14T11:49:05.227Z,27.60
2022-08-14T11:51:42.912Z,27.61
2022-08-14T11:54:34.496Z,27.63
2022-08-14T11:57:04.480Z,27.65
2022-08-14T11:59:33.864Z,27.69
2022-08-14T12:03:03.400Z,27.67
2022-08-14T12:05:09.185Z,27.64
2022-08-14T12:07:49.212Z,27.72
2022-08-14T12:10:27.166Z,27.68
2022-08-14T12:13:22.427Z,27.56
2022-08-14T12:15:58.849Z,27.39
2022-08-14T12:18:33.055Z,27.25
2022-08-14T12:21:22.756Z,27.06
2022-08-14T12:24:08.382Z,26.91
2022-08-14T12:26:40.704Z,26.84
2022-08-14T12:29:16.924Z,26.78
2022-08-14T12:31:47.367Z,26.75
2022-08-14T12:34:20.666Z,26.70
2022-08-14T12:36:49.739Z,26.75
2022-08-14T12:39:23.935Z,26.82
2022-08-14T12:42:01.494Z,26.87
2022-08-14T12:44:39.117Z,26.70
2022-08-14T12:47:14.987Z,26.59
2022-08-14T12:49:52.994Z,26.71
2022-08-14T12:52:45.268Z,26.80
2022-08-14T12:55:22.998Z,26.85
2022-08-14T12:58:02.450Z,26.99
2022-08-14T13:01:16.445Z,27.10
2022-08-14T13:03:41.335Z,27.20
2022-08-14T13:06:10.681Z,27.29
2022-08-14T13:08:37.928Z,27.40
2022-08-14T13:11:14.970Z,27.42
2022-08-14T13:13:44.829Z,27.46
2022-08-14T13:16:20.915Z,27.42
2022-08-14T13:19:01.835Z,27.45
2022-08-14T13:21:58.700Z,27.56
2022-08-14T13:24:20.440Z,27.77
2022-08-14T13:26:51.403Z,27.87
2022-08-14T13:29:22.069Z,27.95
2022-08-14T13:31:53.668Z,27.93
2022-08-14T13:34:24.304Z,27.94
2022-08-14T13:36:59.297Z,27.84
2022-08-14T13:39:36.702Z,27.63
2022-08-14T13:42:13.184Z,27.48
2022-08-14T13:44:42.880Z,27.49
2022-08-14T13:47:11.136Z,27.62
2022-08-14T13:49:40.373Z,27.85
2022-08-14T13:52:52.432Z,27.88
2022-08-14T13:55:15.633Z,27.95
2022-08-14T13:57:49.498Z,27.92
2022-08-14T14:00:21.625Z,27.92
2022-08-14T14:03:00.320Z,27.83
2022-08-14T14:05:53.095Z,27.84
2022-08-14T14:08:19.086Z,27.95
2022-08-14T14:11:03.724Z,28.14
2022-08-14T14:13:31.943Z,28.05
2022-08-14T14:16:03.832Z,27.91
2022-08-14T14:18:34.978Z,28.04
2022-08-14T14:21:02.819Z,28.30
2022-08-14T14:23:31.148Z,28.57
2022-08-14T14:25:59.797Z,28.67
2022-08-14T14:28:31.749Z,28.69
2022-08-14T14:31:06.154Z,28.65
2022-08-14T14:33:47.443Z,28.65
2022-08-14T14:36:21.395Z,28.52
2022-08-14T14:38:56.901Z,28.11
2022-08-14T14:41:26.521Z,27.87
2022-08-14T14:44:06.688Z,27.75
2022-08-14T14:46:38.436Z,27.81
2022-08-14T14:49:14.694Z,27.63
2022-08-14T14:51:46.871Z,27.46
2022-08-14T14:54:31.143Z,27.47
2022-08-14T14:57:00.237Z,27.52
2022-08-14T14:59:30.725Z,27.48
2022-08-14T15:02:09.135Z,27.33
2022-08-14T15:04:43.749Z,27.22
2022-08-14T15:07:12.375Z,27.10
2022-08-14T15:09:39.907Z,26.87
2022-08-14T15:12:34.776Z,26.64
2022-08-14T15:14:58.170Z,26.43
2022-08-14T15:17:41.009Z,26.30
2022-08-14T15:20:17.598Z,26.10
2022-08-14T15:22:57.595Z,25.95
2022-08-14T15:25:24.394Z,25.90
2022-08-14T15:27:54.521Z,25.79
2022-08-14T15:30:23.749Z,25.64
2022-08-14T15:32:51.732Z,25.65
2022-08-14T15:35:22.358Z,25.61
2022-08-14T15:37:55.894Z,25.53
2022-08-14T15:40:23.586Z,25.44
2022-08-14T15:42:50.355Z,25.36
2022-08-14T15:45:17.362Z,25.30
2022-08-14T15:47:44.401Z,25.35
2022-08-14T15:50:13.150Z,25.28
2022-08-14T15:52:42.978Z,25.12
2022-08-14T15:55:15.371Z,25.04
2022-08-14T15:57:51.287Z,25.03
2022-08-14T16:00:49.337Z,25.01
2022-08-14T16:03:18.143Z,24.96
2022-08-14T16:05:53.847Z,24.98
2022-08-14T16:08:28.927Z,24.95
2022-08-14T16:11:01.357Z,24.86
2022-08-14T16:13:41.647Z,24.76
2022-08-14T16:16:34.861Z,24.81
2022-08-14T16:19:19.848Z,24.79
2022-08-14T16:22:02.079Z,24.85
2022-08-14T16:24:59.860Z,25.00
2022-08-14T16:27:33.618Z,24.95
2022-08-14T16:30:11.039Z,25.01
2022-08-14T16:32:54.827Z,25.06
2022-08-14T16:35:26.443Z,25.01
2022-08-14T16:38:19.294Z,25.00
2022-08-14T16:41:17.057Z,24.92
2022-08-14T16:43:45.852Z,24.88
2022-08-14T16:46:16.046Z,24.80
2022-08-14T16:48:57.349Z,24.76
2022-08-14T16:51:28.137Z,24.72
2022-08-14T16:53:58.822Z,24.70
2022-08-14T16:56:30.820Z,24.78
2022-08-14T16:59:12.302Z,24.76
2022-08-14T17:01:44.963Z,24.86
2022-08-14T17:04:24.922Z,25.00
2022-08-14T17:06:55.090Z,25.08
2022-08-14T17:09:24.669Z,25.14
2022-08-14T17:12:29.084Z,25.21
2022-08-14T17:15:15.142Z,25.14
2022-08-14T17:17:49.889Z,25.07
2022-08-14T17:20:39.439Z,25.04
2022-08-14T17:23:11.472Z,24.96
2022-08-14T17:25:39.070Z,24.87
2022-08-14T17:28:49.910Z,24.83
2022-08-14T17:31:03.964Z,24.75
2022-08-14T17:33:44.139Z,24.70
2022-08-14T17:36:20.737Z,24.68
2022-08-14T17:39:06.246Z,24.61
2022-08-14T17:42:01.946Z,24.53
2022-08-14T17:44:45.545Z,24.41
2022-08-14T17:47:18.568Z,24.36
2022-08-14T17:49:51.940Z,24.29
2022-08-14T17:52:34.165Z,24.27
2022-08-14T17:55:05.958Z,24.16
2022-08-14T17:57:35.487Z,24.08
2022-08-14T18:00:12.458Z,24.17
2022-08-14T18:02:41.186Z,24.15
2022-08-14T18:05:23.622Z,24.07
2022-08-14T18:08:34.179Z,23.91
2022-08-14T18:10:56.053Z,23.87
2022-08-14T18:13:49.998Z,23.71
2022-08-14T18:16:20.720Z,23.62
2022-08-14T18:18:51.130Z,23.54
2022-08-14T18:21:24.306Z,23.46
2022-08-14T18:24:28.539Z,23.38
2022-08-14T18:27:01.485Z,23.31
2022-08-14T18:29:31.760Z,23.24
2022-08-14T18:31:58.961Z,23.18
2022-08-14T18:34:37.974Z,23.13
2022-08-14T18:37:21.169Z,23.10
2022-08-14T18:40:03.336Z,23.10
2022-08-14T18:42:34.930Z,23.06
2022-08-14T18:45:02.011Z,23.02
2022-08-14T18:48:06.436Z,22.99
2022-08-14T18:50:30.897Z,22.96
2022-08-14T18:53:07.783Z,22.95
2022-08-14T18:55:35.971Z,22.92
2022-08-14T18:58:18.832Z,22.87
2022-08-14T19:00:56.177Z,22.83
2022-08-14T19:03:36.719Z,22.81
2022-08-14T19:06:09.035Z,22.75
2022-08-14T19:08:39.732Z,22.70
2022-08-14T19:11:39.717Z,22.70
2022-08-14T19:14:08.043Z,22.61
2022-08-14T19:16:43.040Z,22.55
2022-08-14T19:19:15.392Z,22.45
2022-08-14T19:21:56.126Z,22.46
2022-08-14T19:24:44.078Z,22.44
2022-08-14T19:27:26.215Z,22.45
2022-08-14T19:30:20.431Z,22.41
2022-08-14T19:32:55.739Z,22.37
2022-08-14T19:35:49.083Z,22.33
2022-08-14T19:38:53.563Z,22.29
2022-08-14T19:41:36.112Z,22.24
2022-08-14T19:44:12.520Z,22.21
2022-08-14T19:47:02.709Z,22.20
2022-08-14T19:50:08.753Z,22.17
2022-08-14T19:52:29.750Z,22.18
2022-08-14T19:54:59.494Z,22.16
2022-08-14T19:57:31.411Z,22.17
2022-08-14T20:00:28.228Z,22.16
2022-08-14T20:03:09.970Z,22.12
2022-08-14T20:05:45.921Z,22.13
2022-08-14T20:09:05.947Z,22.12
2022-08-14T20:11:19.092Z,22.07
2022-08-14T20:14:00.289Z,22.08
2022-08-14T20:16:40.941Z,22.14
2022-08-14T20:19:29.005Z,22.19
2022-08-14T20:22:34.801Z,22.16
2022-08-14T20:24:50.028Z,22.13
2022-08-14T20:27:33.651Z,22.07
2022-08-14T20:30:34.257Z,22.06
2022-08-14T20:33:11.052Z,22.05
2022-08-14T20:35:51.698Z,22.09
2022-08-14T20:38:29.308Z,22.07
2022-08-14T20:40:59.064Z,22.07
2022-08-14T20:43:52.803Z,22.07
2022-08-14T20:46:38.751Z,21.96
2022-08-14T20:49:16.864Z,21.94
2022-08-14T20:51:59.171Z,21.91
2022-08-14T20:54:33.864Z,21.87
2022-08-14T20:57:15.751Z,21.85
2022-08-14T20:59:53.321Z,21.82
2022-08-14T21:02:38.324Z,21.78
2022-08-14T21:05:16.498Z,21.86
2022-08-14T21:07:50.894Z,21.80
2022-08-14T21:10:33.460Z,21.82
2022-08-14T21:13:25.754Z,21.73
2022-08-14T21:15:57.523Z,21.68
2022-08-14T21:18:47.688Z,21.63
2022-08-14T21:21:20.396Z,21.59
2022-08-14T21:23:55.011Z,21.63
2022-08-14T21:26:51.268Z,21.67
2022-08-14T21:29:15.956Z,21.71
2022-08-14T21:31:55.253Z,21.70
2022-08-14T21:34:31.317Z,21.70
2022-08-14T21:37:09.784Z,21.65
2022-08-14T21:39:38.357Z,21.59
2022-08-14T21:42:06.274Z,21.59
2022-08-14T21:44:43.260Z,21.62
2022-08-14T21:47:12.743Z,21.63
2022-08-14T21:49:40.268Z,21.64
2022-08-14T21:52:49.559Z,21.64
2022-08-14T21:55:09.383Z,21.61
2022-08-14T21:58:43.559Z,21.59
2022-08-14T22:00:34.613Z,21.56
2022-08-14T22:03:08.879Z,21.63
2022-08-14T22:05:38.720Z,21.64
2022-08-14T22:08:07.627Z,21.61
2022-08-14T22:10:42.583Z,21.60
2022-08-14T22:13:11.874Z,21.58
2022-08-14T22:15:43.941Z,21.54
2022-08-14T22:18:19.855Z,21.49
2022-08-14T22:20:46.899Z,21.46
2022-08-14T22:23:13.759Z,21.43
2022-08-14T22:25:43.839Z,21.43
2022-08-14T22:28:20.537Z,21.44
2022-08-14T22:30:48.248Z,21.45
2022-08-14T22:33:31.082Z,21.47
2022-08-14T22:35:59.541Z,21.46
2022-08-14T22:38:35.310Z,21.42
2022-08-14T22:41:26.829Z,21.37
2022-08-14T22:43:53.360Z,21.28
2022-08-14T22:46:21.678Z,21.25
2022-08-14T22:48:49.525Z,21.22
2022-08-14T22:51:21.615Z,21.20
2022-08-14T22:53:52.280Z,21.21
2022-08-14T22:56:21.896Z,21.21
2022-08-14T22:58:54.022Z,21.19
2022-08-14T23:01:55.784Z,21.19
2022-08-14T23:04:35.801Z,21.20
2022-08-14T23:07:21.805Z,21.20
2022-08-14T23:10:32.762Z,21.19
2022-08-14T23:12:54.589Z,21.23
2022-08-14T23:15:24.674Z,21.23
2022-08-14T23:17:56.843Z,21.17
2022-08-14T23:20:23.572Z,21.16
2022-08-14T23:22:56.788Z,21.13
2022-08-14T23:25:57.366Z,21.11
2022-08-14T23:28:34.788Z,21.08
2022-08-14T23:31:05.520Z,21.02
2022-08-14T23:33:33.821Z,20.99
2022-08-14T23:36:03.323Z,20.91
2022-08-14T23:38:31.791Z,20.83
2022-08-14T23:41:00.716Z,20.76
2022-08-14T23:43:31.300Z,20.72
2022-08-14T23:45:59.055Z,20.71
2022-08-14T23:48:28.237Z,20.71
2022-08-14T23:50:55.798Z,20.71
2022-08-14T23:53:28.538Z,20.69
2022-08-14T23:56:17.360Z,20.65
2022-08-14T23:58:49.370Z,20.60
